sensor_id;sensor_type;location;lat;lon;timestamp;P1;durP1;ratioP1;P2;durP2;ratioP2
40599;SDS011;26309;50.924;4.754;2022-09-09T00:01:58;5.20;;;2.00;;
40599;SDS011;26309;50.924;4.754;2022-09-09T00:04:34;6.93;;;1.88;;
40599;SDS011;26309;50.924;4.754;2022-09-09T00:07:19;4.78;;;1.90;;
40599;SDS011;26309;50.924;4.754;2022-09-09T00:12:48;6.00;;;1.65;;
40599;SDS011;26309;50.924;4.754;2022-09-09T00:16:11;5.90;;;2.00;;
40599;SDS011;26309;50.924;4.754;2022-09-09T00:21:14;7.28;;;1.77;;
40599;SDS011;26309;50.924;4.754;2022-09-09T00:24:04;7.78;;;1.98;;
40599;SDS011;26309;50.924;4.754;2022-09-09T00:29:33;6.60;;;1.77;;
40599;SDS011;26309;50.924;4.754;2022-09-09T00:32:15;5.40;;;1.80;;
40599;SDS011;26309;50.924;4.754;2022-09-09T00:34:49;8.00;;;2.47;;
40599;SDS011;26309;50.924;4.754;2022-09-09T00:37:19;5.45;;;2.00;;
40599;SDS011;26309;50.924;4.754;2022-09-09T00:39:47;4.30;;;1.92;;
40599;SDS011;26309;50.924;4.754;2022-09-09T00:42:16;3.97;;;1.80;;
40599;SDS011;26309;50.924;4.754;2022-09-09T00:47:45;7.00;;;2.10;;
40599;SDS011;26309;50.924;4.754;2022-09-09T00:53:15;7.97;;;1.90;;
40599;SDS011;26309;50.924;4.754;2022-09-09T00:56:12;5.95;;;1.80;;
40599;SDS011;26309;50.924;4.754;2022-09-09T00:58:43;5.70;;;1.90;;
40599;SDS011;26309;50.924;4.754;2022-09-09T01:01:21;8.75;;;1.95;;
40599;SDS011;26309;50.924;4.754;2022-09-09T01:03:54;6.35;;;1.85;;
40599;SDS011;26309;50.924;4.754;2022-09-09T01:06:31;6.85;;;2.15;;
40599;SDS011;26309;50.924;4.754;2022-09-09T01:14:47;7.53;;;1.98;;
40599;SDS011;26309;50.924;4.754;2022-09-09T01:17:21;5.60;;;1.90;;
40599;SDS011;26309;50.924;4.754;2022-09-09T01:20:02;3.78;;;1.50;;
40599;SDS011;26309;50.924;4.754;2022-09-09T01:25:20;8.15;;;1.98;;
40599;SDS011;26309;50.924;4.754;2022-09-09T01:27:51;3.55;;;1.70;;
40599;SDS011;26309;50.924;4.754;2022-09-09T01:30:26;6.28;;;1.80;;
40599;SDS011;26309;50.924;4.754;2022-09-09T01:32:57;7.00;;;1.75;;
40599;SDS011;26309;50.924;4.754;2022-09-09T01:35:35;8.55;;;1.98;;
40599;SDS011;26309;50.924;4.754;2022-09-09T01:38:07;4.75;;;2.08;;
40599;SDS011;26309;50.924;4.754;2022-09-09T01:40:34;7.38;;;2.03;;
40599;SDS011;26309;50.924;4.754;2022-09-09T01:43:00;4.88;;;1.83;;
40599;SDS011;26309;50.924;4.754;2022-09-09T01:45:26;6.30;;;1.83;;
40599;SDS011;26309;50.924;4.754;2022-09-09T01:47:53;8.57;;;1.85;;
40599;SDS011;26309;50.924;4.754;2022-09-09T01:50:19;5.53;;;1.77;;
40599;SDS011;26309;50.924;4.754;2022-09-09T01:52:46;6.65;;;1.90;;
40599;SDS011;26309;50.924;4.754;2022-09-09T01:55:16;3.95;;;1.50;;
40599;SDS011;26309;50.924;4.754;2022-09-09T02:04:07;8.57;;;2.10;;
40599;SDS011;26309;50.924;4.754;2022-09-09T02:06:56;8.60;;;2.22;;
40599;SDS011;26309;50.924;4.754;2022-09-09T02:09:25;6.68;;;2.03;;
40599;SDS011;26309;50.924;4.754;2022-09-09T02:12:00;7.10;;;1.98;;
40599;SDS011;26309;50.924;4.754;2022-09-09T02:14:34;10.38;;;2.25;;
40599;SDS011;26309;50.924;4.754;2022-09-09T02:17:08;11.10;;;2.13;;
40599;SDS011;26309;50.924;4.754;2022-09-09T02:19:37;8.93;;;2.17;;
40599;SDS011;26309;50.924;4.754;2022-09-09T02:22:09;6.53;;;2.25;;
40599;SDS011;26309;50.924;4.754;2022-09-09T02:24:36;7.45;;;2.20;;
40599;SDS011;26309;50.924;4.754;2022-09-09T02:27:04;7.30;;;2.67;;
40599;SDS011;26309;50.924;4.754;2022-09-09T02:29:38;6.95;;;2.08;;
40599;SDS011;26309;50.924;4.754;2022-09-09T02:32:11;9.43;;;2.15;;
40599;SDS011;26309;50.924;4.754;2022-09-09T02:34:43;6.28;;;2.33;;
40599;SDS011;26309;50.924;4.754;2022-09-09T02:37:17;8.93;;;2.00;;
40599;SDS011;26309;50.924;4.754;2022-09-09T02:39:46;4.65;;;2.00;;
40599;SDS011;26309;50.924;4.754;2022-09-09T02:42:12;7.68;;;2.38;;
40599;SDS011;26309;50.924;4.754;2022-09-09T02:44:40;8.60;;;2.28;;
40599;SDS011;26309;50.924;4.754;2022-09-09T02:47:16;4.03;;;2.10;;
40599;SDS011;26309;50.924;4.754;2022-09-09T02:55:00;9.40;;;2.35;;
40599;SDS011;26309;50.924;4.754;2022-09-09T02:57:34;7.18;;;2.00;;
40599;SDS011;26309;50.924;4.754;2022-09-09T03:00:01;10.65;;;2.45;;
40599;SDS011;26309;50.924;4.754;2022-09-09T03:02:29;4.68;;;2.13;;
40599;SDS011;26309;50.924;4.754;2022-09-09T03:04:55;10.30;;;2.45;;
40599;SDS011;26309;50.924;4.754;2022-09-09T03:07:22;7.38;;;2.35;;
40599;SDS011;26309;50.924;4.754;2022-09-09T03:09:47;8.73;;;2.22;;
40599;SDS011;26309;50.924;4.754;2022-09-09T03:12:14;8.45;;;2.42;;
40599;SDS011;26309;50.924;4.754;2022-09-09T03:14:39;10.13;;;2.33;;
40599;SDS011;26309;50.924;4.754;2022-09-09T03:17:05;5.50;;;2.05;;
40599;SDS011;26309;50.924;4.754;2022-09-09T03:19:31;8.75;;;1.90;;
40599;SDS011;26309;50.924;4.754;2022-09-09T03:21:57;6.88;;;2.10;;
40599;SDS011;26309;50.924;4.754;2022-09-09T03:24:23;12.10;;;2.25;;
40599;SDS011;26309;50.924;4.754;2022-09-09T03:26:50;12.20;;;2.45;;
40599;SDS011;26309;50.924;4.754;2022-09-09T03:29:16;8.77;;;2.67;;
40599;SDS011;26309;50.924;4.754;2022-09-09T03:31:43;9.43;;;2.28;;
40599;SDS011;26309;50.924;4.754;2022-09-09T03:34:09;10.60;;;2.13;;
40599;SDS011;26309;50.924;4.754;2022-09-09T03:36:36;8.13;;;2.25;;
40599;SDS011;26309;50.924;4.754;2022-09-09T03:39:02;10.98;;;2.13;;
40599;SDS011;26309;50.924;4.754;2022-09-09T03:41:28;8.48;;;2.20;;
40599;SDS011;26309;50.924;4.754;2022-09-09T03:43:54;7.32;;;1.90;;
40599;SDS011;26309;50.924;4.754;2022-09-09T03:46:22;11.15;;;2.10;;
40599;SDS011;26309;50.924;4.754;2022-09-09T03:48:49;15.82;;;2.45;;
40599;SDS011;26309;50.924;4.754;2022-09-09T03:51:15;7.18;;;2.13;;
40599;SDS011;26309;50.924;4.754;2022-09-09T03:53:41;7.32;;;2.17;;
40599;SDS011;26309;50.924;4.754;2022-09-09T03:56:08;6.88;;;2.20;;
40599;SDS011;26309;50.924;4.754;2022-09-09T03:58:35;8.82;;;2.35;;
40599;SDS011;26309;50.924;4.754;2022-09-09T04:01:05;8.70;;;2.38;;
40599;SDS011;26309;50.924;4.754;2022-09-09T04:03:35;11.18;;;2.47;;
40599;SDS011;26309;50.924;4.754;2022-09-09T04:06:02;10.90;;;2.50;;
40599;SDS011;26309;50.924;4.754;2022-09-09T04:08:31;8.65;;;2.22;;
40599;SDS011;26309;50.924;4.754;2022-09-09T04:10:57;6.78;;;2.25;;
40599;SDS011;26309;50.924;4.754;2022-09-09T04:13:23;12.50;;;2.33;;
40599;SDS011;26309;50.924;4.754;2022-09-09T04:15:51;9.32;;;2.33;;
40599;SDS011;26309;50.924;4.754;2022-09-09T04:18:18;13.07;;;2.50;;
40599;SDS011;26309;50.924;4.754;2022-09-09T04:20:48;10.50;;;2.53;;
40599;SDS011;26309;50.924;4.754;2022-09-09T04:23:16;8.20;;;2.47;;
40599;SDS011;26309;50.924;4.754;2022-09-09T04:25:48;10.95;;;2.47;;
40599;SDS011;26309;50.924;4.754;2022-09-09T04:28:16;7.43;;;2.45;;
40599;SDS011;26309;50.924;4.754;2022-09-09T04:30:45;6.55;;;2.33;;
40599;SDS011;26309;50.924;4.754;2022-09-09T04:33:11;10.80;;;2.42;;
40599;SDS011;26309;50.924;4.754;2022-09-09T04:35:38;9.50;;;2.20;;
40599;SDS011;26309;50.924;4.754;2022-09-09T04:38:08;10.05;;;2.50;;
40599;SDS011;26309;50.924;4.754;2022-09-09T04:40:34;15.70;;;2.63;;
40599;SDS011;26309;50.924;4.754;2022-09-09T04:43:01;8.95;;;2.78;;
40599;SDS011;26309;50.924;4.754;2022-09-09T04:45:31;12.07;;;2.80;;
40599;SDS011;26309;50.924;4.754;2022-09-09T04:47:57;11.57;;;2.30;;
40599;SDS011;26309;50.924;4.754;2022-09-09T04:50:23;8.73;;;2.30;;
40599;SDS011;26309;50.924;4.754;2022-09-09T04:52:50;9.98;;;2.22;;
40599;SDS011;26309;50.924;4.754;2022-09-09T04:55:15;14.27;;;2.80;;
40599;SDS011;26309;50.924;4.754;2022-09-09T04:57:41;11.80;;;2.58;;
40599;SDS011;26309;50.924;4.754;2022-09-09T05:00:08;8.50;;;2.30;;
40599;SDS011;26309;50.924;4.754;2022-09-09T05:02:38;9.38;;;2.50;;
40599;SDS011;26309;50.924;4.754;2022-09-09T05:05:05;11.25;;;2.28;;
40599;SDS011;26309;50.924;4.754;2022-09-09T05:07:31;9.10;;;2.60;;
40599;SDS011;26309;50.924;4.754;2022-09-09T05:09:57;7.80;;;2.20;;
40599;SDS011;26309;50.924;4.754;2022-09-09T05:12:23;10.05;;;2.22;;
40599;SDS011;26309;50.924;4.754;2022-09-09T05:14:51;12.32;;;2.70;;
40599;SDS011;26309;50.924;4.754;2022-09-09T05:17:17;14.07;;;3.08;;
40599;SDS011;26309;50.924;4.754;2022-09-09T05:19:43;12.82;;;2.53;;
40599;SDS011;26309;50.924;4.754;2022-09-09T05:22:12;12.10;;;2.33;;
40599;SDS011;26309;50.924;4.754;2022-09-09T05:24:38;10.73;;;2.55;;
40599;SDS011;26309;50.924;4.754;2022-09-09T05:27:04;11.32;;;3.15;;
40599;SDS011;26309;50.924;4.754;2022-09-09T05:29:31;10.73;;;2.45;;
40599;SDS011;26309;50.924;4.754;2022-09-09T05:31:58;9.23;;;2.90;;
40599;SDS011;26309;50.924;4.754;2022-09-09T05:34:25;18.33;;;3.03;;
40599;SDS011;26309;50.924;4.754;2022-09-09T05:36:50;10.50;;;2.70;;
40599;SDS011;26309;50.924;4.754;2022-09-09T05:39:17;15.95;;;2.90;;
40599;SDS011;26309;50.924;4.754;2022-09-09T05:41:43;9.68;;;2.55;;
40599;SDS011;26309;50.924;4.754;2022-09-09T05:44:09;12.70;;;2.97;;
40599;SDS011;26309;50.924;4.754;2022-09-09T05:46:38;12.63;;;2.80;;
40599;SDS011;26309;50.924;4.754;2022-09-09T05:49:04;15.60;;;2.63;;
40599;SDS011;26309;50.924;4.754;2022-09-09T05:51:31;12.93;;;2.92;;
40599;SDS011;26309;50.924;4.754;2022-09-09T05:53:57;9.88;;;2.60;;
40599;SDS011;26309;50.924;4.754;2022-09-09T05:56:24;11.70;;;2.50;;
40599;SDS011;26309;50.924;4.754;2022-09-09T05:58:52;11.20;;;2.80;;
40599;SDS011;26309;50.924;4.754;2022-09-09T06:03:52;9.32;;;2.40;;
40599;SDS011;26309;50.924;4.754;2022-09-09T06:06:22;8.70;;;2.10;;
40599;SDS011;26309;50.924;4.754;2022-09-09T06:08:51;12.35;;;2.60;;
40599;SDS011;26309;50.924;4.754;2022-09-09T06:11:27;12.23;;;2.38;;
40599;SDS011;26309;50.924;4.754;2022-09-09T06:13:57;6.82;;;2.13;;
40599;SDS011;26309;50.924;4.754;2022-09-09T06:16:25;12.90;;;2.50;;
40599;SDS011;26309;50.924;4.754;2022-09-09T06:18:53;8.68;;;2.10;;
40599;SDS011;26309;50.924;4.754;2022-09-09T06:21:23;8.60;;;2.17;;
40599;SDS011;26309;50.924;4.754;2022-09-09T06:23:51;9.85;;;2.15;;
40599;SDS011;26309;50.924;4.754;2022-09-09T06:26:19;9.90;;;2.72;;
40599;SDS011;26309;50.924;4.754;2022-09-09T06:28:50;6.00;;;1.92;;
40599;SDS011;26309;50.924;4.754;2022-09-09T06:31:19;9.60;;;2.10;;
40599;SDS011;26309;50.924;4.754;2022-09-09T06:33:47;11.48;;;2.28;;
40599;SDS011;26309;50.924;4.754;2022-09-09T06:36:15;8.98;;;1.98;;
40599;SDS011;26309;50.924;4.754;2022-09-09T06:38:43;13.32;;;2.35;;
40599;SDS011;26309;50.924;4.754;2022-09-09T06:41:10;10.35;;;2.10;;
40599;SDS011;26309;50.924;4.754;2022-09-09T06:43:38;13.07;;;2.33;;
40599;SDS011;26309;50.924;4.754;2022-09-09T06:48:32;10.68;;;2.25;;
40599;SDS011;26309;50.924;4.754;2022-09-09T06:51:02;10.80;;;2.17;;
40599;SDS011;26309;50.924;4.754;2022-09-09T06:53:39;12.73;;;2.40;;
40599;SDS011;26309;50.924;4.754;2022-09-09T06:58:53;15.23;;;2.45;;
40599;SDS011;26309;50.924;4.754;2022-09-09T07:01:27;10.35;;;2.63;;
40599;SDS011;26309;50.924;4.754;2022-09-09T07:03:56;8.60;;;2.22;;
40599;SDS011;26309;50.924;4.754;2022-09-09T07:06:37;14.45;;;2.17;;
40599;SDS011;26309;50.924;4.754;2022-09-09T07:09:05;12.15;;;2.53;;
40599;SDS011;26309;50.924;4.754;2022-09-09T07:11:36;12.68;;;2.45;;
40599;SDS011;26309;50.924;4.754;2022-09-09T07:14:03;6.35;;;1.70;;
40599;SDS011;26309;50.924;4.754;2022-09-09T07:16:32;11.70;;;2.38;;
40599;SDS011;26309;50.924;4.754;2022-09-09T07:19:00;10.15;;;2.03;;
40599;SDS011;26309;50.924;4.754;2022-09-09T07:21:28;7.15;;;1.90;;
40599;SDS011;26309;50.924;4.754;2022-09-09T07:23:56;8.35;;;1.80;;
40599;SDS011;26309;50.924;4.754;2022-09-09T07:26:23;6.72;;;1.85;;
40599;SDS011;26309;50.924;4.754;2022-09-09T07:28:51;8.95;;;2.03;;
40599;SDS011;26309;50.924;4.754;2022-09-09T07:31:18;7.65;;;2.17;;
40599;SDS011;26309;50.924;4.754;2022-09-09T07:33:55;9.75;;;2.30;;
40599;SDS011;26309;50.924;4.754;2022-09-09T07:36:26;5.10;;;1.83;;
40599;SDS011;26309;50.924;4.754;2022-09-09T07:38:54;9.07;;;2.67;;
40599;SDS011;26309;50.924;4.754;2022-09-09T07:41:22;7.30;;;1.92;;
40599;SDS011;26309;50.924;4.754;2022-09-09T07:43:51;13.13;;;2.55;;
40599;SDS011;26309;50.924;4.754;2022-09-09T07:46:19;13.52;;;2.85;;
40599;SDS011;26309;50.924;4.754;2022-09-09T07:48:48;15.25;;;2.70;;
40599;SDS011;26309;50.924;4.754;2022-09-09T07:51:22;12.25;;;2.42;;
40599;SDS011;26309;50.924;4.754;2022-09-09T07:53:55;10.20;;;2.15;;
40599;SDS011;26309;50.924;4.754;2022-09-09T07:56:24;11.60;;;2.17;;
40599;SDS011;26309;50.924;4.754;2022-09-09T07:58:51;8.60;;;2.03;;
40599;SDS011;26309;50.924;4.754;2022-09-09T08:01:20;10.52;;;2.30;;
40599;SDS011;26309;50.924;4.754;2022-09-09T08:03:56;9.63;;;2.00;;
40599;SDS011;26309;50.924;4.754;2022-09-09T08:06:27;10.82;;;2.20;;
40599;SDS011;26309;50.924;4.754;2022-09-09T08:08:56;9.15;;;2.40;;
40599;SDS011;26309;50.924;4.754;2022-09-09T08:11:22;10.38;;;2.20;;
40599;SDS011;26309;50.924;4.754;2022-09-09T08:13:50;10.38;;;2.20;;
40599;SDS011;26309;50.924;4.754;2022-09-09T08:16:18;9.77;;;2.17;;
40599;SDS011;26309;50.924;4.754;2022-09-09T08:18:47;8.48;;;2.25;;
40599;SDS011;26309;50.924;4.754;2022-09-09T08:21:15;8.10;;;1.88;;
40599;SDS011;26309;50.924;4.754;2022-09-09T08:23:53;13.23;;;2.35;;
40599;SDS011;26309;50.924;4.754;2022-09-09T08:26:27;12.68;;;1.90;;
40599;SDS011;26309;50.924;4.754;2022-09-09T08:28:55;7.18;;;1.83;;
40599;SDS011;26309;50.924;4.754;2022-09-09T08:31:23;11.18;;;2.17;;
40599;SDS011;26309;50.924;4.754;2022-09-09T08:33:51;9.63;;;2.35;;
40599;SDS011;26309;50.924;4.754;2022-09-09T08:36:18;11.18;;;1.88;;
40599;SDS011;26309;50.924;4.754;2022-09-09T08:38:49;8.00;;;1.85;;
40599;SDS011;26309;50.924;4.754;2022-09-09T08:41:22;11.00;;;2.40;;
40599;SDS011;26309;50.924;4.754;2022-09-09T08:44:10;9.10;;;1.85;;
40599;SDS011;26309;50.924;4.754;2022-09-09T08:54:55;8.68;;;1.50;;
40599;SDS011;26309;50.924;4.754;2022-09-09T08:57:28;5.57;;;1.63;;
40599;SDS011;26309;50.924;4.754;2022-09-09T08:59:57;10.02;;;2.28;;
40599;SDS011;26309;50.924;4.754;2022-09-09T09:05:07;7.82;;;1.90;;
40599;SDS011;26309;50.924;4.754;2022-09-09T09:13:59;6.40;;;1.55;;
40599;SDS011;26309;50.924;4.754;2022-09-09T09:18:43;9.95;;;2.00;;
40599;SDS011;26309;50.924;4.754;2022-09-09T09:21:13;10.68;;;2.28;;
40599;SDS011;26309;50.924;4.754;2022-09-09T09:23:51;8.20;;;2.00;;
40599;SDS011;26309;50.924;4.754;2022-09-09T09:26:24;7.47;;;1.88;;
40599;SDS011;26309;50.924;4.754;2022-09-09T09:28:56;7.50;;;2.10;;
40599;SDS011;26309;50.924;4.754;2022-09-09T09:31:28;5.65;;;1.83;;
40599;SDS011;26309;50.924;4.754;2022-09-09T09:33:54;7.78;;;2.00;;
40599;SDS011;26309;50.924;4.754;2022-09-09T09:36:25;10.02;;;2.20;;
40599;SDS011;26309;50.924;4.754;2022-09-09T09:39:02;9.02;;;2.00;;
40599;SDS011;26309;50.924;4.754;2022-09-09T09:41:40;8.05;;;2.53;;
40599;SDS011;26309;50.924;4.754;2022-09-09T09:44:24;6.55;;;2.00;;
40599;SDS011;26309;50.924;4.754;2022-09-09T09:46:51;4.90;;;1.90;;
40599;SDS011;26309;50.924;4.754;2022-09-09T09:49:18;8.65;;;2.28;;
40599;SDS011;26309;50.924;4.754;2022-09-09T09:51:44;9.38;;;2.25;;
40599;SDS011;26309;50.924;4.754;2022-09-09T09:56:46;7.43;;;2.38;;
40599;SDS011;26309;50.924;4.754;2022-09-09T09:59:46;7.55;;;2.15;;
40599;SDS011;26309;50.924;4.754;2022-09-09T10:05:02;7.43;;;2.10;;
40599;SDS011;26309;50.924;4.754;2022-09-09T10:07:29;10.88;;;2.05;;
40599;SDS011;26309;50.924;4.754;2022-09-09T10:09:56;8.65;;;2.20;;
40599;SDS011;26309;50.924;4.754;2022-09-09T10:17:57;9.18;;;2.13;;
40599;SDS011;26309;50.924;4.754;2022-09-09T10:26:13;9.57;;;2.50;;
40599;SDS011;26309;50.924;4.754;2022-09-09T10:29:05;8.05;;;2.35;;
40599;SDS011;26309;50.924;4.754;2022-09-09T10:57:17;8.98;;;1.92;;
40599;SDS011;26309;50.924;4.754;2022-09-09T10:59:48;6.43;;;2.10;;
40599;SDS011;26309;50.924;4.754;2022-09-09T11:04:57;8.15;;;2.17;;
40599;SDS011;26309;50.924;4.754;2022-09-09T11:07:48;7.60;;;2.20;;
40599;SDS011;26309;50.924;4.754;2022-09-09T11:13:22;6.25;;;1.73;;
40599;SDS011;26309;50.924;4.754;2022-09-09T11:15:54;9.18;;;2.45;;
40599;SDS011;26309;50.924;4.754;2022-09-09T11:18:50;7.22;;;2.00;;
40599;SDS011;26309;50.924;4.754;2022-09-09T11:21:27;9.32;;;2.00;;
40599;SDS011;26309;50.924;4.754;2022-09-09T11:24:04;7.80;;;2.13;;
40599;SDS011;26309;50.924;4.754;2022-09-09T11:26:38;7.70;;;1.90;;
40599;SDS011;26309;50.924;4.754;2022-09-09T11:40:59;7.63;;;2.20;;
40599;SDS011;26309;50.924;4.754;2022-09-09T11:43:45;10.32;;;1.80;;
40599;SDS011;26309;50.924;4.754;2022-09-09T11:46:22;5.47;;;1.67;;
40599;SDS011;26309;50.924;4.754;2022-09-09T11:49:04;6.13;;;1.83;;
40599;SDS011;26309;50.924;4.754;2022-09-09T11:51:32;7.00;;;1.92;;
40599;SDS011;26309;50.924;4.754;2022-09-09T11:56:51;7.70;;;1.83;;
40599;SDS011;26309;50.924;4.754;2022-09-09T11:59:29;5.68;;;1.92;;
40599;SDS011;26309;50.924;4.754;2022-09-09T12:01:57;5.57;;;1.60;;
40599;SDS011;26309;50.924;4.754;2022-09-09T12:04:38;6.03;;;1.67;;
40599;SDS011;26309;50.924;4.754;2022-09-09T12:14:43;7.97;;;1.65;;
40599;SDS011;26309;50.924;4.754;2022-09-09T12:17:22;8.10;;;1.52;;
40599;SDS011;26309;50.924;4.754;2022-09-09T12:20:12;8.07;;;1.63;;
40599;SDS011;26309;50.924;4.754;2022-09-09T12:22:50;4.60;;;1.52;;
40599;SDS011;26309;50.924;4.754;2022-09-09T12:33:44;6.40;;;1.58;;
40599;SDS011;26309;50.924;4.754;2022-09-09T12:36:13;4.55;;;1.60;;
40599;SDS011;26309;50.924;4.754;2022-09-09T12:38:43;3.33;;;1.38;;
40599;SDS011;26309;50.924;4.754;2022-09-09T12:44:04;7.20;;;1.83;;
40599;SDS011;26309;50.924;4.754;2022-09-09T12:46:33;4.80;;;1.73;;
40599;SDS011;26309;50.924;4.754;2022-09-09T12:52:41;5.68;;;1.33;;
40599;SDS011;26309;50.924;4.754;2022-09-09T12:54:51;4.97;;;1.70;;
40599;SDS011;26309;50.924;4.754;2022-09-09T12:57:19;5.93;;;1.52;;
40599;SDS011;26309;50.924;4.754;2022-09-09T12:59:47;5.05;;;1.65;;
40599;SDS011;26309;50.924;4.754;2022-09-09T13:04:47;7.32;;;1.55;;
40599;SDS011;26309;50.924;4.754;2022-09-09T13:07:15;4.25;;;1.33;;
40599;SDS011;26309;50.924;4.754;2022-09-09T13:09:43;4.63;;;1.27;;
40599;SDS011;26309;50.924;4.754;2022-09-09T13:12:12;4.38;;;1.30;;
40599;SDS011;26309;50.924;4.754;2022-09-09T13:14:42;5.15;;;1.60;;
40599;SDS011;26309;50.924;4.754;2022-09-09T13:17:17;4.93;;;1.55;;
40599;SDS011;26309;50.924;4.754;2022-09-09T13:19:47;5.50;;;1.50;;
40599;SDS011;26309;50.924;4.754;2022-09-09T13:22:22;4.07;;;1.30;;
40599;SDS011;26309;50.924;4.754;2022-09-09T13:25:00;7.43;;;1.25;;
40599;SDS011;26309;50.924;4.754;2022-09-09T13:27:36;5.45;;;1.52;;
40599;SDS011;26309;50.924;4.754;2022-09-09T13:38:24;3.42;;;1.15;;
40599;SDS011;26309;50.924;4.754;2022-09-09T13:40:56;2.70;;;1.27;;
40599;SDS011;26309;50.924;4.754;2022-09-09T13:43:28;4.78;;;1.42;;
40599;SDS011;26309;50.924;4.754;2022-09-09T13:51:36;5.28;;;1.40;;
40599;SDS011;26309;50.924;4.754;2022-09-09T13:54:10;4.05;;;1.17;;
40599;SDS011;26309;50.924;4.754;2022-09-09T13:56:38;5.03;;;1.33;;
40599;SDS011;26309;50.924;4.754;2022-09-09T13:59:08;3.90;;;1.10;;
40599;SDS011;26309;50.924;4.754;2022-09-09T14:01:39;4.35;;;1.40;;
40599;SDS011;26309;50.924;4.754;2022-09-09T14:04:06;4.53;;;1.30;;
40599;SDS011;26309;50.924;4.754;2022-09-09T14:06:33;4.38;;;1.17;;
40599;SDS011;26309;50.924;4.754;2022-09-09T14:09:09;4.50;;;1.38;;
40599;SDS011;26309;50.924;4.754;2022-09-09T14:11:37;3.20;;;1.17;;
40599;SDS011;26309;50.924;4.754;2022-09-09T14:14:03;4.63;;;1.27;;
40599;SDS011;26309;50.924;4.754;2022-09-09T14:16:30;6.38;;;1.45;;
40599;SDS011;26309;50.924;4.754;2022-09-09T14:18:56;5.80;;;1.40;;
40599;SDS011;26309;50.924;4.754;2022-09-09T14:21:23;2.53;;;1.20;;
40599;SDS011;26309;50.924;4.754;2022-09-09T14:23:50;6.57;;;1.15;;
40599;SDS011;26309;50.924;4.754;2022-09-09T14:26:17;2.08;;;1.00;;
40599;SDS011;26309;50.924;4.754;2022-09-09T14:28:46;1.88;;;1.02;;
40599;SDS011;26309;50.924;4.754;2022-09-09T14:31:12;4.35;;;1.40;;
40599;SDS011;26309;50.924;4.754;2022-09-09T14:33:39;2.65;;;1.13;;
40599;SDS011;26309;50.924;4.754;2022-09-09T14:36:07;3.67;;;1.40;;
40599;SDS011;26309;50.924;4.754;2022-09-09T14:38:35;3.03;;;1.13;;
40599;SDS011;26309;50.924;4.754;2022-09-09T14:41:15;2.78;;;1.10;;
40599;SDS011;26309;50.924;4.754;2022-09-09T14:43:43;4.40;;;1.48;;
40599;SDS011;26309;50.924;4.754;2022-09-09T14:46:10;6.30;;;1.48;;
40599;SDS011;26309;50.924;4.754;2022-09-09T14:48:38;2.35;;;1.10;;
40599;SDS011;26309;50.924;4.754;2022-09-09T14:53:38;3.03;;;1.30;;
40599;SDS011;26309;50.924;4.754;2022-09-09T14:56:05;4.03;;;1.33;;
40599;SDS011;26309;50.924;4.754;2022-09-09T14:58:33;4.78;;;1.40;;
40599;SDS011;26309;50.924;4.754;2022-09-09T15:01:03;3.70;;;1.20;;
40599;SDS011;26309;50.924;4.754;2022-09-09T15:03:31;3.63;;;1.10;;
40599;SDS011;26309;50.924;4.754;2022-09-09T15:05:57;6.63;;;1.52;;
40599;SDS011;26309;50.924;4.754;2022-09-09T15:08:24;2.92;;;1.27;;
40599;SDS011;26309;50.924;4.754;2022-09-09T15:10:51;4.47;;;1.30;;
40599;SDS011;26309;50.924;4.754;2022-09-09T15:13:25;5.32;;;1.60;;
40599;SDS011;26309;50.924;4.754;2022-09-09T15:15:51;3.85;;;1.30;;
40599;SDS011;26309;50.924;4.754;2022-09-09T15:18:17;5.00;;;1.40;;
40599;SDS011;26309;50.924;4.754;2022-09-09T15:20:46;4.22;;;1.48;;
40599;SDS011;26309;50.924;4.754;2022-09-09T15:23:14;5.35;;;1.65;;
40599;SDS011;26309;50.924;4.754;2022-09-09T15:25:55;6.03;;;1.80;;
40599;SDS011;26309;50.924;4.754;2022-09-09T15:28:21;5.13;;;1.55;;
40599;SDS011;26309;50.924;4.754;2022-09-09T15:30:48;2.85;;;1.35;;
40599;SDS011;26309;50.924;4.754;2022-09-09T15:33:15;6.88;;;1.60;;
40599;SDS011;26309;50.924;4.754;2022-09-09T15:35:41;4.47;;;1.23;;
40599;SDS011;26309;50.924;4.754;2022-09-09T15:38:07;4.35;;;1.30;;
40599;SDS011;26309;50.924;4.754;2022-09-09T15:40:33;4.05;;;1.88;;
40599;SDS011;26309;50.924;4.754;2022-09-09T15:42:59;3.88;;;1.50;;
40599;SDS011;26309;50.924;4.754;2022-09-09T15:45:25;2.97;;;1.30;;
40599;SDS011;26309;50.924;4.754;2022-09-09T15:47:52;3.45;;;1.25;;
40599;SDS011;26309;50.924;4.754;2022-09-09T15:50:18;4.32;;;1.20;;
40599;SDS011;26309;50.924;4.754;2022-09-09T15:52:43;3.13;;;1.30;;
40599;SDS011;26309;50.924;4.754;2022-09-09T15:55:09;6.28;;;1.35;;
40599;SDS011;26309;50.924;4.754;2022-09-09T15:57:35;4.45;;;1.40;;
40599;SDS011;26309;50.924;4.754;2022-09-09T16:00:02;4.18;;;1.42;;
40599;SDS011;26309;50.924;4.754;2022-09-09T16:02:29;3.45;;;1.50;;
40599;SDS011;26309;50.924;4.754;2022-09-09T16:04:55;6.10;;;1.48;;
40599;SDS011;26309;50.924;4.754;2022-09-09T16:07:22;5.43;;;1.48;;
40599;SDS011;26309;50.924;4.754;2022-09-09T16:09:48;4.22;;;1.50;;
40599;SDS011;26309;50.924;4.754;2022-09-09T16:12:16;4.63;;;1.60;;
40599;SDS011;26309;50.924;4.754;2022-09-09T16:14:42;5.30;;;1.30;;
40599;SDS011;26309;50.924;4.754;2022-09-09T16:17:08;3.90;;;1.40;;
40599;SDS011;26309;50.924;4.754;2022-09-09T16:19:34;3.67;;;1.38;;
40599;SDS011;26309;50.924;4.754;2022-09-09T16:22:00;3.28;;;1.20;;
40599;SDS011;26309;50.924;4.754;2022-09-09T16:24:26;6.60;;;1.38;;
40599;SDS011;26309;50.924;4.754;2022-09-09T16:27:13;5.10;;;1.58;;
40599;SDS011;26309;50.924;4.754;2022-09-09T16:30:52;2.80;;;1.20;;
40599;SDS011;26309;50.924;4.754;2022-09-09T16:33:29;5.88;;;1.58;;
40599;SDS011;26309;50.924;4.754;2022-09-09T16:35:55;5.20;;;1.88;;
40599;SDS011;26309;50.924;4.754;2022-09-09T16:38:21;3.65;;;1.40;;
40599;SDS011;26309;50.924;4.754;2022-09-09T16:40:47;4.20;;;1.60;;
40599;SDS011;26309;50.924;4.754;2022-09-09T16:43:15;5.10;;;1.35;;
40599;SDS011;26309;50.924;4.754;2022-09-09T16:45:41;3.42;;;1.42;;
40599;SDS011;26309;50.924;4.754;2022-09-09T16:48:08;4.72;;;1.77;;
40599;SDS011;26309;50.924;4.754;2022-09-09T16:50:34;2.10;;;1.20;;
40599;SDS011;26309;50.924;4.754;2022-09-09T16:53:00;7.63;;;1.73;;
40599;SDS011;26309;50.924;4.754;2022-09-09T16:55:31;4.18;;;1.52;;
40599;SDS011;26309;50.924;4.754;2022-09-09T16:57:57;5.72;;;1.58;;
40599;SDS011;26309;50.924;4.754;2022-09-09T17:00:23;7.72;;;1.85;;
40599;SDS011;26309;50.924;4.754;2022-09-09T17:02:48;4.13;;;1.67;;
40599;SDS011;26309;50.924;4.754;2022-09-09T17:05:14;4.97;;;1.90;;
40599;SDS011;26309;50.924;4.754;2022-09-09T17:07:40;4.30;;;1.60;;
40599;SDS011;26309;50.924;4.754;2022-09-09T17:10:06;5.65;;;2.00;;
40599;SDS011;26309;50.924;4.754;2022-09-09T17:12:32;3.55;;;1.60;;
40599;SDS011;26309;50.924;4.754;2022-09-09T17:15:00;5.50;;;1.70;;
40599;SDS011;26309;50.924;4.754;2022-09-09T17:17:28;4.15;;;1.58;;
40599;SDS011;26309;50.924;4.754;2022-09-09T17:19:54;2.42;;;1.40;;
40599;SDS011;26309;50.924;4.754;2022-09-09T17:22:20;2.08;;;1.52;;
40599;SDS011;26309;50.924;4.754;2022-09-09T17:24:46;4.25;;;1.40;;
40599;SDS011;26309;50.924;4.754;2022-09-09T17:27:13;3.95;;;1.40;;
40599;SDS011;26309;50.924;4.754;2022-09-09T17:29:39;3.83;;;1.80;;
40599;SDS011;26309;50.924;4.754;2022-09-09T17:32:05;4.63;;;1.48;;
40599;SDS011;26309;50.924;4.754;2022-09-09T17:34:32;4.60;;;1.58;;
40599;SDS011;26309;50.924;4.754;2022-09-09T17:36:58;3.28;;;1.70;;
40599;SDS011;26309;50.924;4.754;2022-09-09T17:39:24;5.30;;;1.80;;
40599;SDS011;26309;50.924;4.754;2022-09-09T17:41:51;3.45;;;1.67;;
40599;SDS011;26309;50.924;4.754;2022-09-09T17:44:17;5.13;;;1.90;;
40599;SDS011;26309;50.924;4.754;2022-09-09T17:46:44;5.57;;;1.77;;
40599;SDS011;26309;50.924;4.754;2022-09-09T17:49:14;4.75;;;1.48;;